Time;durP1;ratioP1;P1;durP2;ratioP2;P2;SDS_P1;SDS_P2;PMS_P1;PMS_P2;Temp;Humidity;BMP_temperature;BMP_pressure;BME280_temperature;BME280_humidity;BME280_pressure;Samples;Min_cycle;Max_cycle;Signal;HPM_P1;HPM_P2
2022/11/12 00:01:20;;;;;;;7.80;4.07;;;9.90;99.90;;;;;;4218645;28;20036;-60
2022/11/12 00:03:21;;;;;;;8.60;3.83;;;9.90;99.90;;;;;;4218566;28;20509;-61
2022/11/12 00:05:21;;;;;;;4.53;3.05;;;9.90;99.90;;;;;;4214123;28;20115;-61
2022/11/12 00:07:22;;;;;;;7.43;4.03;;;9.80;99.90;;;;;;4217709;28;20029;-61
2022/11/12 00:09:23;;;;;;;6.07;3.50;;;9.80;99.90;;;;;;4218398;28;20059;-61
2022/11/12 00:11:23;;;;;;;5.78;3.53;;;9.80;99.90;;;;;;4217769;28;20051;-61
2022/11/12 00:13:24;;;;;;;7.55;4.20;;;9.70;99.90;;;;;;4216307;28;20097;-61
2022/11/12 00:15:25;;;;;;;6.28;3.20;;;9.70;99.90;;;;;;4221619;28;20411;-61
2022/11/12 00:17:26;;;;;;;5.85;3.45;;;9.70;99.90;;;;;;4213772;28;20036;-60
2022/11/12 00:19:26;;;;;;;6.93;4.00;;;9.60;99.90;;;;;;4218195;28;20390;-61
2022/11/12 00:21:27;;;;;;;9.70;3.55;;;9.60;99.90;;;;;;4214206;28;20407;-61
2022/11/12 00:23:27;;;;;;;6.53;3.60;;;9.60;99.90;;;;;;4213081;28;20023;-61
2022/11/12 00:25:29;;;;;;;7.82;3.33;;;9.60;99.90;;;;;;4219263;28;20046;-61
2022/11/12 00:27:33;;;;;;;7.88;3.83;;;9.60;99.90;;;;;;4220423;28;20161;-60
2022/11/12 00:29:33;;;;;;;5.22;3.33;;;9.60;99.90;;;;;;4220837;28;20032;-61
2022/11/12 00:31:34;;;;;;;8.02;3.67;;;9.60;99.90;;;;;;4219027;28;20372;-61
2022/11/12 00:33:38;;;;;;;8.68;4.20;;;9.50;99.90;;;;;;4218335;28;20071;-60
2022/11/12 00:35:39;;;;;;;7.20;4.38;;;9.50;99.90;;;;;;4219001;28;20032;-61
2022/11/12 00:37:39;;;;;;;6.30;4.07;;;9.50;99.90;;;;;;4216680;28;20478;-60
2022/11/12 00:39:40;;;;;;;6.00;3.97;;;9.40;99.90;;;;;;4219219;28;20032;-61
2022/11/12 00:41:41;;;;;;;7.88;4.32;;;9.40;99.90;;;;;;4225337;28;20027;-61
2022/11/12 00:43:41;;;;;;;6.03;3.60;;;9.40;99.90;;;;;;4220080;28;20103;-61
2022/11/12 00:45:42;;;;;;;5.50;3.03;;;9.30;99.90;;;;;;4223017;28;20035;-61
2022/11/12 00:47:43;;;;;;;4.95;3.22;;;9.30;99.90;;;;;;4225715;28;20031;-61
2022/11/12 00:49:44;;;;;;;7.18;3.45;;;9.30;99.90;;;;;;4219525;28;20043;-61
2022/11/12 00:51:44;;;;;;;6.38;4.00;;;9.30;99.90;;;;;;4221131;28;20024;-61
2022/11/12 00:53:49;;;;;;;6.28;3.35;;;9.20;99.90;;;;;;4220767;28;20043;-61
2022/11/12 00:55:49;;;;;;;5.40;3.30;;;9.30;99.90;;;;;;4218885;28;20036;-61
2022/11/12 00:57:50;;;;;;;5.60;3.35;;;9.30;99.90;;;;;;4218144;28;20115;-61
2022/11/12 00:59:50;;;;;;;4.63;3.10;;;9.30;99.90;;;;;;4217262;28;21000;-60
2022/11/12 01:01:51;;;;;;;5.03;3.42;;;9.30;99.90;;;;;;4214655;28;20046;-61
2022/11/12 01:03:53;;;;;;;5.57;3.45;;;9.30;99.90;;;;;;4214138;28;21031;-61
2022/11/12 01:05:53;;;;;;;6.95;3.65;;;9.30;99.90;;;;;;4217241;28;20032;-61
2022/11/12 01:07:54;;;;;;;5.15;3.28;;;9.30;99.90;;;;;;4225117;28;20032;-61
2022/11/12 01:09:54;;;;;;;4.95;3.00;;;9.30;99.90;;;;;;4221630;28;20031;-61
2022/11/12 01:11:55;;;;;;;4.80;3.53;;;9.30;99.90;;;;;;4222066;28;20086;-61
2022/11/12 01:14:01;;;;;;;7.65;3.63;;;9.30;99.90;;;;;;4217344;28;20035;-61
2022/11/12 01:16:06;;;;;;;4.40;3.17;;;9.30;99.90;;;;;;4217357;28;20082;-61
2022/11/12 01:18:07;;;;;;;6.10;2.90;;;9.20;99.90;;;;;;4222074;28;20042;-61
2022/11/12 01:20:08;;;;;;;5.20;3.63;;;9.20;99.90;;;;;;4215031;28;20028;-64
2022/11/12 01:22:10;;;;;;;5.10;3.53;;;9.20;99.90;;;;;;4220511;28;20069;-61
2022/11/12 01:24:11;;;;;;;7.70;3.63;;;9.20;99.90;;;;;;4222289;28;20044;-61
2022/11/12 01:26:14;;;;;;;6.22;3.72;;;9.20;99.90;;;;;;4225799;28;20027;-61
2022/11/12 01:28:14;;;;;;;5.90;3.47;;;9.10;99.90;;;;;;4222212;28;20046;-61
2022/11/12 01:30:15;;;;;;;6.28;3.70;;;9.10;99.90;;;;;;4215873;28;20458;-61
2022/11/12 01:32:16;;;;;;;6.18;3.92;;;9.10;99.90;;;;;;4217440;28;20122;-61
2022/11/12 01:34:16;;;;;;;6.10;3.80;;;9.10;99.90;;;;;;4218565;28;20156;-61
2022/11/12 01:36:17;;;;;;;5.30;3.63;;;9.10;99.90;;;;;;4220545;28;20051;-61
2022/11/12 01:38:18;;;;;;;6.38;3.85;;;9.10;99.90;;;;;;4219609;28;20380;-61
2022/11/12 01:40:19;;;;;;;7.05;3.50;;;9.10;99.90;;;;;;4222102;28;20126;-61
2022/11/12 01:42:21;;;;;;;5.38;3.45;;;9.10;99.90;;;;;;4217790;28;20471;-61
2022/11/12 01:44:25;;;;;;;5.25;3.72;;;9.10;99.90;;;;;;4222550;28;20034;-61
2022/11/12 01:46:28;;;;;;;7.18;3.90;;;9.10;99.90;;;;;;4218012;28;20070;-61
2022/11/12 01:48:43;;;;;;;6.65;3.80;;;9.10;99.90;;;;;;4222241;28;20110;-61
2022/11/12 01:50:43;;;;;;;6.57;3.83;;;9.10;99.90;;;;;;4216009;28;20028;-61
2022/11/12 01:52:50;;;;;;;6.43;3.75;;;9.10;99.90;;;;;;4217415;28;20040;-61
2022/11/12 01:54:53;;;;;;;6.85;3.90;;;9.00;99.90;;;;;;4222852;28;20024;-60
2022/11/12 01:56:56;;;;;;;4.65;3.03;;;9.00;99.90;;;;;;4220079;28;20036;-61
2022/11/12 01:59:05;;;;;;;5.38;3.33;;;9.00;99.90;;;;;;4218585;28;20039;-61
2022/11/12 02:01:06;;;;;;;5.75;3.35;;;9.00;99.90;;;;;;4215088;28;20439;-61
2022/11/12 02:03:20;;;;;;;6.63;3.50;;;9.00;99.90;;;;;;4221305;28;20039;-61
2022/11/12 02:05:23;;;;;;;9.95;3.53;;;8.90;99.90;;;;;;4218335;28;20036;-61
2022/11/12 02:07:25;;;;;;;6.53;3.75;;;8.90;99.90;;;;;;4214338;28;20040;-61
2022/11/12 02:09:25;;;;;;;6.95;4.30;;;9.00;99.90;;;;;;4214169;28;20067;-61
2022/11/12 02:11:27;;;;;;;5.22;3.38;;;8.90;99.90;;;;;;4223053;28;20036;-60
2022/11/12 02:15:47;;;;;;;5.35;3.20;;;8.90;99.90;;;;;;4216287;28;20027;-61
2022/11/12 02:17:48;;;;;;;4.47;3.20;;;8.90;99.90;;;;;;4218655;28;20078;-61
2022/11/12 02:19:51;;;;;;;6.15;3.03;;;8.80;99.90;;;;;;4218066;28;20063;-61
2022/11/12 02:21:51;;;;;;;6.10;3.60;;;8.80;99.90;;;;;;4210840;28;20115;-61
2022/11/12 02:24:12;;;;;;;4.28;3.00;;;8.80;99.90;;;;;;4221346;28;20384;-61
2022/11/12 02:26:12;;;;;;;4.63;3.47;;;8.80;99.90;;;;;;4216728;28;20458;-61
2022/11/12 02:28:13;;;;;;;5.88;3.35;;;8.80;99.90;;;;;;4216156;28;20036;-61
2022/11/12 02:30:13;;;;;;;5.93;3.35;;;8.70;99.90;;;;;;4218095;28;20042;-61
2022/11/12 02:32:14;;;;;;;5.68;3.20;;;8.80;99.90;;;;;;4219676;28;20147;-61
2022/11/12 02:34:15;;;;;;;5.93;3.25;;;8.70;99.90;;;;;;4215586;28;20517;-61
2022/11/12 02:36:15;;;;;;;5.35;3.35;;;8.80;99.90;;;;;;4215158;28;20122;-61
2022/11/12 02:38:16;;;;;;;4.53;3.03;;;8.70;99.90;;;;;;4219619;28;20392;-61
2022/11/12 02:40:16;;;;;;;4.70;3.05;;;8.70;99.90;;;;;;4216311;28;20097;-61
2022/11/12 02:42:17;;;;;;;4.75;2.88;;;8.70;99.90;;;;;;4216985;28;20684;-61
2022/11/12 02:44:17;;;;;;;5.05;3.05;;;8.70;99.90;;;;;;4221140;28;20099;-61
2022/11/12 02:46:18;;;;;;;4.15;2.72;;;8.60;99.90;;;;;;4216935;28;20085;-61
2022/11/12 02:48:19;;;;;;;4.63;2.88;;;8.60;99.90;;;;;;4217197;28;20089;-61
2022/11/12 02:50:19;;;;;;;5.90;3.30;;;8.60;99.90;;;;;;4216307;28;20086;-61
2022/11/12 02:52:20;;;;;;;6.05;3.45;;;8.60;99.90;;;;;;4220033;28;20040;-61
2022/11/12 02:54:20;;;;;;;5.15;3.20;;;8.60;99.90;;;;;;4217135;28;20046;-61
2022/11/12 02:56:21;;;;;;;6.22;3.45;;;8.60;99.90;;;;;;4219911;28;20043;-60
2022/11/12 02:58:21;;;;;;;5.25;3.30;;;8.60;99.90;;;;;;4220955;28;20059;-61
2022/11/12 03:00:22;;;;;;;4.95;3.03;;;8.60;99.90;;;;;;4214885;28;20058;-61
2022/11/12 03:02:23;;;;;;;6.88;3.53;;;8.60;99.90;;;;;;4221346;28;20027;-61
2022/11/12 03:04:23;;;;;;;5.45;3.30;;;8.60;99.90;;;;;;4218906;28;20035;-61
2022/11/12 03:06:24;;;;;;;5.78;3.45;;;8.60;99.90;;;;;;4215743;28;20043;-61
2022/11/12 03:08:25;;;;;;;5.68;3.50;;;8.60;99.90;;;;;;4222584;28;20032;-61
2022/11/12 03:10:26;;;;;;;5.47;3.35;;;8.60;99.90;;;;;;4216047;28;20036;-61
2022/11/12 03:12:30;;;;;;;5.20;3.33;;;8.60;99.90;;;;;;4220099;28;20126;-61
2022/11/12 03:14:30;;;;;;;5.78;3.53;;;8.60;99.90;;;;;;4216422;28;20039;-61
2022/11/12 03:16:31;;;;;;;6.95;3.72;;;8.60;99.90;;;;;;4212962;28;20028;-60
2022/11/12 03:18:32;;;;;;;6.05;3.15;;;8.60;99.90;;;;;;4217829;28;20027;-60
2022/11/12 03:20:33;;;;;;;4.57;3.00;;;8.70;99.90;;;;;;4221816;28;20048;-61
2022/11/12 03:22:34;;;;;;;5.93;3.42;;;8.70;99.90;;;;;;4216536;28;20032;-61
2022/11/12 03:24:34;;;;;;;6.97;3.95;;;8.70;99.90;;;;;;4193229;28;20024;-62
2022/11/12 03:26:35;;;;;;;9.45;3.65;;;8.70;99.90;;;;;;4213861;28;20035;-61
2022/11/12 03:28:35;;;;;;;6.18;3.78;;;8.70;99.90;;;;;;4206270;28;20024;-61
2022/11/12 03:30:38;;;;;;;4.32;3.65;;;8.70;99.90;;;;;;4215819;28;20115;-63
2022/11/12 03:32:38;;;;;;;7.85;3.60;;;8.70;99.90;;;;;;4218612;28;20040;-61
2022/11/12 03:34:39;;;;;;;5.25;3.55;;;8.70;99.90;;;;;;4215492;28;20028;-61
2022/11/12 03:36:39;;;;;;;5.00;3.30;;;8.70;99.90;;;;;;4222835;28;20080;-61
2022/11/12 03:38:40;;;;;;;6.30;3.80;;;8.80;99.90;;;;;;4216370;28;20032;-61
2022/11/12 03:40:40;;;;;;;6.57;3.85;;;8.80;99.90;;;;;;4214502;28;20030;-61
2022/11/12 03:42:46;;;;;;;7.72;4.03;;;8.80;99.90;;;;;;4213499;28;21089;-61
2022/11/12 03:44:47;;;;;;;6.03;3.85;;;8.80;99.90;;;;;;4212154;28;20025;-61
2022/11/12 03:46:47;;;;;;;8.00;4.22;;;8.80;99.90;;;;;;4205679;28;20068;-61
2022/11/12 03:48:48;;;;;;;6.40;3.70;;;8.80;99.90;;;;;;4219849;28;20028;-61
2022/11/12 03:50:48;;;;;;;6.40;4.03;;;8.80;99.90;;;;;;4216533;28;20024;-61
2022/11/12 03:52:51;;;;;;;7.55;3.55;;;8.90;99.90;;;;;;4212566;28;20505;-60
2022/11/12 03:54:52;;;;;;;5.63;3.55;;;8.90;99.90;;;;;;4216954;28;20085;-61
2022/11/12 03:56:52;;;;;;;5.82;3.70;;;8.90;99.90;;;;;;4218981;28;20028;-61
2022/11/12 03:58:53;;;;;;;8.05;4.63;;;8.90;99.90;;;;;;4218723;28;20031;-61
2022/11/12 04:00:54;;;;;;;5.13;3.65;;;8.90;99.90;;;;;;4211710;28;20031;-61
2022/11/12 04:02:54;;;;;;;7.50;3.90;;;8.90;99.90;;;;;;4221906;28;20093;-61
2022/11/12 04:09:33;;;;;;;7.35;3.78;;;8.90;99.90;;;;;;4220946;28;20023;-61
2022/11/12 04:14:36;;;;;;;7.45;3.33;;;9.00;99.90;;;;;;4205051;28;20392;-61
2022/11/12 04:23:39;;;;;;;5.40;3.63;;;9.00;99.90;;;;;;4222885;28;20028;-61
2022/11/12 04:27:59;;;;;;;6.32;3.90;;;9.00;99.90;;;;;;4218638;28;20032;-61
2022/11/12 04:30:15;;;;;;;5.88;3.70;;;9.00;99.90;;;;;;4217716;28;20078;-61
2022/11/12 04:32:15;;;;;;;6.35;3.63;;;9.00;99.90;;;;;;4215406;28;20453;-61
2022/11/12 04:34:28;;;;;;;6.63;3.80;;;9.00;99.90;;;;;;4218390;28;20059;-61
2022/11/12 04:36:29;;;;;;;9.38;3.42;;;9.00;99.90;;;;;;4223887;28;20039;-61
2022/11/12 04:38:29;;;;;;;5.80;3.33;;;9.00;99.90;;;;;;4220408;28;20035;-61
2022/11/12 04:45:10;;;;;;;5.43;3.08;;;9.00;99.90;;;;;;4217923;28;20153;-63
2022/11/12 04:47:10;;;;;;;5.38;3.80;;;8.90;99.90;;;;;;4221174;28;20032;-61
2022/11/12 04:49:11;;;;;;;6.78;3.63;;;9.00;99.90;;;;;;4217833;28;20122;-61
2022/11/12 04:53:30;;;;;;;6.20;3.80;;;8.90;99.90;;;;;;4218523;28;20040;-61
2022/11/12 04:55:31;;;;;;;4.93;3.33;;;8.90;99.90;;;;;;4215975;28;20050;-61
2022/11/12 04:57:32;;;;;;;7.07;3.85;;;8.90;99.90;;;;;;4204429;28;20036;-61
2022/11/12 04:59:32;;;;;;;5.25;3.08;;;8.90;99.90;;;;;;4222024;28;20039;-60
2022/11/12 05:01:33;;;;;;;6.15;3.67;;;8.90;99.90;;;;;;4213534;28;20428;-61
2022/11/12 05:03:34;;;;;;;5.35;3.38;;;8.90;99.90;;;;;;4217694;27;20482;-61
2022/11/12 05:05:34;;;;;;;6.93;3.83;;;8.90;99.90;;;;;;4210441;28;20035;-61
2022/11/12 05:07:35;;;;;;;7.75;4.18;;;8.90;99.90;;;;;;4205219;28;20055;-61
2022/11/12 05:09:36;;;;;;;5.95;3.38;;;8.90;99.90;;;;;;4217786;27;20040;-61
2022/11/12 05:11:37;;;;;;;4.95;3.17;;;8.90;99.90;;;;;;4213322;28;20391;-63
2022/11/12 05:13:37;;;;;;;6.22;3.70;;;8.90;99.90;;;;;;4216692;28;20035;-62
2022/11/12 05:15:38;;;;;;;5.10;3.30;;;8.90;99.90;;;;;;4219877;27;20475;-61
2022/11/12 05:17:42;;;;;;;5.93;3.65;;;8.90;99.90;;;;;;4209185;28;20165;-61
2022/11/12 05:19:43;;;;;;;5.72;3.13;;;8.90;99.90;;;;;;4207246;28;20028;-61
2022/11/12 05:24:04;;;;;;;4.88;2.85;;;8.80;99.90;;;;;;4220972;28;20053;-60
2022/11/12 05:26:04;;;;;;;6.25;3.45;;;8.80;99.90;;;;;;4221378;28;20482;-61
2022/11/12 05:28:05;;;;;;;4.63;3.00;;;8.80;99.90;;;;;;4217293;28;20043;-61
2022/11/12 05:30:06;;;;;;;5.22;3.20;;;8.80;99.90;;;;;;4205602;28;20383;-61
2022/11/12 05:32:10;;;;;;;4.13;3.13;;;8.80;99.90;;;;;;4200163;28;20093;-62
2022/11/12 05:34:11;;;;;;;4.28;3.25;;;8.80;99.90;;;;;;4205249;28;20491;-61
2022/11/12 05:36:11;;;;;;;5.85;2.97;;;8.80;99.90;;;;;;4200301;28;20097;-61
2022/11/12 05:38:12;;;;;;;6.15;3.35;;;8.80;99.90;;;;;;4199556;28;20029;-61
2022/11/12 05:40:13;;;;;;;8.18;3.92;;;8.80;99.90;;;;;;4203452;28;20109;-61
2022/11/12 05:42:13;;;;;;;7.80;4.20;;;8.70;99.90;;;;;;4201841;28;20032;-61
2022/11/12 05:44:14;;;;;;;6.70;3.75;;;8.80;99.90;;;;;;4199439;28;20486;-61
2022/11/12 05:46:14;;;;;;;9.65;4.05;;;8.70;99.90;;;;;;4202482;28;20094;-61
2022/11/12 05:48:15;;;;;;;9.43;4.40;;;8.70;99.90;;;;;;4199663;28;20066;-60
2022/11/12 05:50:15;;;;;;;7.88;4.50;;;8.70;99.90;;;;;;4201103;28;20037;-61
2022/11/12 05:52:16;;;;;;;6.68;3.80;;;8.70;99.90;;;;;;4207816;28;20047;-61
2022/11/12 05:54:17;;;;;;;7.85;4.50;;;8.70;99.90;;;;;;4206540;28;20048;-61
2022/11/12 05:56:18;;;;;;;8.65;4.43;;;8.80;99.90;;;;;;4205198;28;20064;-61
2022/11/12 05:58:18;;;;;;;9.68;4.43;;;8.70;99.90;;;;;;4200848;28;20029;-60
2022/11/12 06:00:19;;;;;;;7.00;4.32;;;8.80;99.90;;;;;;4198175;28;20040;-61
2022/11/12 06:02:19;;;;;;;7.35;4.00;;;8.80;99.90;;;;;;4204777;28;20043;-61
2022/11/12 06:04:21;;;;;;;6.78;4.20;;;8.80;99.90;;;;;;4201162;28;20028;-60
2022/11/12 06:06:22;;;;;;;7.00;4.22;;;8.80;99.90;;;;;;4204378;28;20124;-60
2022/11/12 06:08:22;;;;;;;7.18;4.25;;;8.80;99.90;;;;;;4206201;28;20032;-61
2022/11/12 06:10:23;;;;;;;7.20;4.30;;;8.80;99.90;;;;;;4205841;28;20505;-61
2022/11/12 06:12:23;;;;;;;6.25;4.13;;;8.80;99.90;;;;;;4204369;28;20394;-60
2022/11/12 06:14:24;;;;;;;7.00;3.78;;;8.80;99.90;;;;;;4200487;28;20433;-60
2022/11/12 06:16:25;;;;;;;7.07;4.45;;;8.80;99.90;;;;;;4202320;28;20059;-60
2022/11/12 06:18:25;;;;;;;6.90;4.32;;;8.80;99.90;;;;;;4199962;28;20036;-61
2022/11/12 06:20:26;;;;;;;9.07;3.95;;;8.80;99.90;;;;;;4199356;28;20040;-60
2022/11/12 06:22:26;;;;;;;6.35;3.78;;;8.80;99.90;;;;;;4199251;28;20479;-60
2022/11/12 06:24:29;;;;;;;6.70;3.90;;;8.80;99.90;;;;;;4203379;28;21049;-61
2022/11/12 06:26:29;;;;;;;6.57;4.07;;;8.80;99.90;;;;;;4200170;28;24464;-61
2022/11/12 06:28:30;;;;;;;6.97;4.18;;;8.80;99.90;;;;;;4200425;28;20487;-61
2022/11/12 06:30:30;;;;;;;6.32;4.15;;;8.80;99.90;;;;;;4196807;28;20486;-61
2022/11/12 06:32:32;;;;;;;6.32;3.53;;;8.80;99.90;;;;;;4201025;28;20032;-61
2022/11/12 06:34:32;;;;;;;6.53;4.28;;;8.80;99.90;;;;;;4216875;28;20027;-61
2022/11/12 06:36:33;;;;;;;5.40;3.60;;;8.80;99.90;;;;;;4215899;28;20032;-61
2022/11/12 06:38:36;;;;;;;6.47;4.03;;;8.70;99.90;;;;;;4218210;28;20047;-61
2022/11/12 06:40:37;;;;;;;4.60;3.55;;;8.70;99.90;;;;;;4202324;28;20032;-61
2022/11/12 06:42:38;;;;;;;7.95;4.38;;;8.70;99.90;;;;;;4201866;28;20032;-61
2022/11/12 06:44:38;;;;;;;6.53;3.70;;;8.70;99.90;;;;;;4201772;28;20020;-61
2022/11/12 06:46:39;;;;;;;6.53;3.95;;;8.70;99.90;;;;;;4199975;28;20036;-61
2022/11/12 06:48:40;;;;;;;6.78;3.72;;;8.70;99.90;;;;;;4202947;28;20028;-63
2022/11/12 06:50:41;;;;;;;8.15;4.35;;;8.70;99.90;;;;;;4203252;28;20028;-61
2022/11/12 06:52:41;;;;;;;6.75;3.50;;;8.70;99.90;;;;;;4203779;28;20475;-61
2022/11/12 06:54:42;;;;;;;5.78;3.60;;;8.70;99.90;;;;;;4209241;28;20463;-60
2022/11/12 06:56:43;;;;;;;5.57;4.13;;;8.80;99.90;;;;;;4215400;28;20060;-61
2022/11/12 06:58:43;;;;;;;6.20;3.67;;;8.80;99.90;;;;;;4216466;28;20023;-61
2022/11/12 07:00:44;;;;;;;5.78;3.83;;;8.80;99.90;;;;;;4217794;28;20024;-61
2022/11/12 07:02:44;;;;;;;6.07;3.60;;;8.80;99.90;;;;;;4215759;28;20416;-61
2022/11/12 07:04:45;;;;;;;7.78;3.80;;;8.80;99.90;;;;;;4212088;28;20028;-60
2022/11/12 07:06:45;;;;;;;5.57;3.72;;;8.80;99.90;;;;;;4218653;28;20558;-61
2022/11/12 07:08:48;;;;;;;7.50;3.67;;;8.90;99.90;;;;;;4218226;28;20397;-61
2022/11/12 07:10:48;;;;;;;;;;;8.90;99.90;;;;;;4202048;28;20035;-60
2022/11/12 07:12:52;;;;;;;5.68;3.45;;;8.90;99.90;;;;;;4209562;28;19908;-61
2022/11/12 07:14:53;;;;;;;7.22;4.15;;;8.90;99.90;;;;;;4222086;28;20390;-61
2022/11/12 07:16:53;;;;;;;8.35;3.90;;;8.90;99.90;;;;;;4217890;28;20040;-60
2022/11/12 07:18:54;;;;;;;6.35;3.55;;;9.00;99.90;;;;;;4218257;28;20044;-60
2022/11/12 07:20:59;;;;;;;5.97;3.40;;;8.90;99.90;;;;;;4216006;28;20032;-61
2022/11/12 07:23:00;;;;;;;6.03;4.00;;;8.90;99.90;;;;;;4214096;28;20388;-60
2022/11/12 07:25:01;;;;;;;6.35;4.05;;;8.90;99.90;;;;;;4210494;28;20033;-61
2022/11/12 07:27:01;;;;;;;6.03;3.75;;;8.90;99.90;;;;;;4205758;28;20406;-61
2022/11/12 07:29:02;;;;;;;8.65;4.05;;;8.90;99.90;;;;;;4203695;28;20037;-60
2022/11/12 07:31:05;;;;;;;6.68;4.05;;;8.90;99.90;;;;;;4207217;28;20114;-60
2022/11/12 07:33:05;;;;;;;;;;;8.90;99.90;;;;;;4213864;28;20043;-60
2022/11/12 07:35:06;;;;;;;7.35;3.75;;;8.90;99.90;;;;;;4203223;28;20369;-61
2022/11/12 07:37:07;;;;;;;6.95;4.60;;;8.90;99.90;;;;;;4210265;28;20032;-60
2022/11/12 07:39:07;;;;;;;6.07;4.22;;;8.90;99.90;;;;;;4206094;28;20506;-60
2022/11/12 07:41:13;;;;;;;6.78;4.25;;;8.90;99.90;;;;;;4206764;28;20503;-64
2022/11/12 07:43:13;;;;;;;8.82;4.97;;;8.90;99.90;;;;;;4218369;28;20031;-61
2022/11/12 07:45:14;;;;;;;7.90;4.75;;;9.00;99.90;;;;;;4214157;28;20024;-61
2022/11/12 07:47:14;;;;;;;7.60;4.40;;;9.00;99.90;;;;;;4211031;28;20170;-61
2022/11/12 07:49:15;;;;;;;7.15;4.70;;;9.10;99.90;;;;;;4210876;28;20039;-61
2022/11/12 07:51:18;;;;;;;6.82;4.28;;;9.20;99.90;;;;;;4207448;28;20142;-64
2022/11/12 07:53:18;;;;;;;7.78;4.63;;;9.30;99.90;;;;;;4209997;28;20055;-64
2022/11/12 07:55:19;;;;;;;8.18;4.63;;;9.50;99.90;;;;;;4208178;28;20040;-64
2022/11/12 07:57:19;;;;;;;7.13;4.43;;;9.70;99.90;;;;;;4208221;28;20040;-64
2022/11/12 07:59:20;;;;;;;7.05;4.10;;;9.90;99.90;;;;;;4213002;28;20600;-64
2022/11/12 08:01:35;;;;;;;5.85;3.90;;;10.20;99.90;;;;;;4215745;28;20160;-64
2022/11/12 08:03:36;;;;;;;8.70;4.70;;;10.50;99.90;;;;;;4213937;28;20036;-64
2022/11/12 08:05:36;;;;;;;6.32;4.25;;;10.70;99.90;;;;;;4212395;28;20085;-64
2022/11/12 08:07:37;;;;;;;8.15;3.80;;;11.00;99.90;;;;;;4209123;28;20394;-64
2022/11/12 08:09:38;;;;;;;4.63;3.53;;;11.30;99.90;;;;;;4213082;28;20398;-64
2022/11/12 08:11:38;;;;;;;4.93;3.67;;;11.60;99.90;;;;;;4213043;28;20056;-64
2022/11/12 08:13:39;;;;;;;5.90;4.15;;;11.90;99.90;;;;;;4218323;28;20032;-65
2022/11/12 08:15:39;;;;;;;12.15;3.95;;;12.10;99.90;;;;;;4211884;28;20149;-66
2022/11/12 08:17:40;;;;;;;6.72;4.00;;;12.50;99.90;;;;;;4210812;28;20081;-65
2022/11/12 08:19:40;;;;;;;6.95;3.58;;;12.80;99.90;;;;;;4196180;28;20028;-67
2022/11/12 08:21:41;;;;;;;6.40;3.85;;;13.00;99.90;;;;;;4199468;28;20044;-65
2022/11/12 08:23:42;;;;;;;6.43;3.90;;;13.30;99.90;;;;;;4204081;28;20113;-64
2022/11/12 08:25:42;;;;;;;7.22;4.25;;;13.50;99.90;;;;;;4199968;28;20039;-65
2022/11/12 08:27:43;;;;;;;4.45;3.53;;;13.60;99.90;;;;;;4206744;28;20043;-65
2022/11/12 08:29:43;;;;;;;5.85;3.70;;;13.90;99.90;;;;;;4201514;28;20556;-65
2022/11/12 08:31:45;;;;;;;6.75;3.53;;;14.10;99.90;;;;;;4201471;28;20040;-65
2022/11/12 08:33:46;;;;;;;4.72;3.20;;;14.30;99.90;;;;;;4217967;28;20032;-65
2022/11/12 08:35:46;;;;;;;5.72;3.42;;;14.40;99.90;;;;;;4214771;28;20077;-65
2022/11/12 08:37:47;;;;;;;8.13;3.45;;;14.60;99.90;;;;;;4210996;28;20082;-65
2022/11/12 08:39:47;;;;;;;5.45;3.53;;;14.60;99.90;;;;;;4199545;28;20041;-65
2022/11/12 08:41:48;;;;;;;5.95;3.45;;;14.70;99.90;;;;;;4200408;28;20043;-65
2022/11/12 08:43:48;;;;;;;5.05;3.20;;;14.70;99.90;;;;;;4199200;28;20608;-65
2022/11/12 08:45:49;;;;;;;6.07;2.97;;;14.90;99.90;;;;;;4208649;28;20604;-65
2022/11/12 08:47:50;;;;;;;5.07;3.20;;;15.10;99.90;;;;;;4217514;28;20511;-65
2022/11/12 08:49:50;;;;;;;6.15;3.58;;;15.20;99.90;;;;;;4216629;28;20025;-65
2022/11/12 08:51:51;;;;;;;4.30;2.80;;;15.40;99.90;;;;;;4221502;28;20063;-64
2022/11/12 08:53:51;;;;;;;5.07;3.20;;;15.40;99.90;;;;;;4216615;28;20036;-65
2022/11/12 08:55:53;;;;;;;5.05;2.92;;;15.70;99.90;;;;;;4203525;28;20047;-64
2022/11/12 08:57:54;;;;;;;3.92;2.85;;;15.80;99.90;;;;;;4205767;28;20604;-65
2022/11/12 08:59:54;;;;;;;4.20;2.80;;;16.10;99.90;;;;;;4202310;28;20060;-65
2022/11/12 09:01:55;;;;;;;5.65;3.10;;;16.20;99.90;;;;;;4198338;28;20029;-65
2022/11/12 09:03:55;;;;;;;3.60;2.53;;;16.40;99.90;;;;;;4199368;28;20032;-64
2022/11/12 09:05:56;;;;;;;5.45;2.83;;;16.60;99.90;;;;;;4196498;28;20090;-65
2022/11/12 09:08:02;;;;;;;4.07;2.75;;;16.60;99.90;;;;;;4199683;28;20407;-65
2022/11/12 09:10:04;;;;;;;4.15;2.55;;;16.70;99.90;;;;;;4198279;28;20050;-66
2022/11/12 09:12:05;;;;;;;4.00;2.72;;;16.80;99.90;;;;;;4214373;28;20115;-65
2022/11/12 09:14:05;;;;;;;3.95;2.55;;;16.70;99.90;;;;;;4218048;28;20493;-65
2022/11/12 09:16:08;;;;;;;3.75;2.72;;;16.70;99.90;;;;;;4215891;28;20032;-65
2022/11/12 09:18:13;;;;;;;4.43;2.72;;;16.70;99.90;;;;;;4216721;28;20491;-65
2022/11/12 09:20:14;;;;;;;4.45;2.50;;;16.50;99.90;;;;;;4196098;28;20044;-65
2022/11/12 09:22:14;;;;;;;4.15;2.30;;;16.40;99.90;;;;;;4217959;28;20105;-65
2022/11/12 09:24:15;;;;;;;3.05;2.40;;;16.40;99.90;;;;;;4214441;28;20403;-65
2022/11/12 09:26:16;;;;;;;3.65;2.33;;;16.30;99.90;;;;;;4212525;28;20044;-65
2022/11/12 09:28:17;;;;;;;3.63;2.40;;;16.20;99.90;;;;;;4219344;28;20036;-65
2022/11/12 09:30:18;;;;;;;3.53;2.20;;;16.10;99.90;;;;;;4203162;28;20032;-65
2022/11/12 09:32:18;;;;;;;4.13;2.25;;;15.90;99.90;;;;;;4202380;28;20131;-65
2022/11/12 09:34:19;;;;;;;3.30;1.98;;;15.90;99.90;;;;;;4199855;28;20096;-65
2022/11/12 09:36:20;;;;;;;3.47;2.15;;;15.90;99.90;;;;;;4201769;28;20131;-65
2022/11/12 09:38:21;;;;;;;2.60;2.05;;;15.80;99.90;;;;;;4204383;28;20039;-65
2022/11/12 09:40:28;;;;;;;3.90;2.33;;;15.80;99.90;;;;;;4201875;28;20131;-65
2022/11/12 09:42:29;;;;;;;4.57;2.40;;;15.70;99.90;;;;;;4200074;28;20058;-64
2022/11/12 09:44:30;;;;;;;4.03;1.98;;;15.50;99.90;;;;;;4202200;27;20136;-64
2022/11/12 09:46:46;;;;;;;4.68;2.58;;;15.50;99.90;;;;;;4200272;28;20488;-65
2022/11/12 09:48:53;;;;;;;3.97;2.40;;;15.40;99.90;;;;;;4201276;28;20028;-65
2022/11/12 09:51:01;;;;;;;3.97;2.40;;;15.30;99.90;;;;;;4200581;28;20395;-65
2022/11/12 09:53:41;;;;;;;4.78;2.70;;;15.30;99.90;;;;;;4202563;28;20387;-65
2022/11/12 09:55:47;;;;;;;5.03;2.53;;;15.20;99.90;;;;;;4183410;28;20032;-66
2022/11/12 09:57:47;;;;;;;4.28;2.55;;;15.10;99.90;;;;;;4198251;28;20116;-66
2022/11/12 09:59:48;;;;;;;3.95;2.42;;;15.00;99.90;;;;;;4203080;28;20068;-64
2022/11/12 10:02:22;;;;;;;3.15;2.25;;;14.90;99.90;;;;;;4198271;28;20483;-65
2022/11/12 10:04:37;;;;;;;4.35;2.67;;;14.80;99.90;;;;;;4200649;28;20115;-64
2022/11/12 10:06:54;;;;;;;3.28;2.40;;;14.70;99.90;;;;;;4198480;28;20062;-65
2022/11/12 10:09:12;;;;;;;3.03;2.10;;;14.70;99.90;;;;;;4199102;28;20410;-66
2022/11/12 10:14:24;;;;;;;4.05;2.30;;;14.70;99.90;;;;;;4202148;28;20090;-65
2022/11/12 10:16:51;;;;;;;4.28;2.50;;;14.60;99.90;;;;;;4197610;28;20056;-65
2022/11/12 10:19:07;;;;;;;3.88;2.70;;;14.60;99.90;;;;;;4196907;28;20047;-65
2022/11/12 10:21:30;;;;;;;4.00;2.17;;;14.50;99.90;;;;;;4196598;28;20082;-65
2022/11/12 10:23:40;;;;;;;3.53;2.13;;;14.50;99.90;;;;;;4199611;28;20071;-65
2022/11/12 10:25:44;;;;;;;5.88;2.85;;;14.50;99.90;;;;;;4200008;28;20036;-66
2022/11/12 10:27:53;;;;;;;4.13;2.72;;;14.40;99.90;;;;;;4197784;28;20036;-66
2022/11/12 10:30:02;;;;;;;5.07;2.42;;;14.40;99.90;;;;;;4199433;28;20024;-65
2022/11/12 10:32:02;;;;;;;4.63;2.55;;;14.50;99.90;;;;;;4196725;28;20032;-65
2022/11/12 10:34:12;;;;;;;4.03;2.60;;;14.50;99.90;;;;;;4197621;28;20487;-65
2022/11/12 10:36:15;;;;;;;4.65;2.78;;;14.50;99.90;;;;;;4206775;28;20067;-66
2022/11/12 10:38:25;;;;;;;6.03;2.78;;;14.40;99.90;;;;;;4214870;28;20090;-66
2022/11/12 10:40:30;;;;;;;4.20;2.33;;;14.40;99.90;;;;;;4216515;28;20053;-65
2022/11/12 10:42:31;;;;;;;4.88;3.05;;;14.40;99.90;;;;;;4222061;28;20042;-65
2022/11/12 10:44:32;;;;;;;3.10;2.28;;;14.40;99.90;;;;;;4218364;28;20391;-65
2022/11/12 10:46:35;;;;;;;4.57;2.80;;;14.40;99.90;;;;;;4221052;28;20039;-65
2022/11/12 10:48:36;;;;;;;4.90;2.92;;;14.40;99.90;;;;;;4219667;28;20027;-64
2022/11/12 10:50:41;;;;;;;3.60;2.63;;;14.30;99.90;;;;;;4216629;28;20054;-65
2022/11/12 10:53:02;;;;;;;4.95;2.95;;;14.30;99.90;;;;;;4218614;28;20139;-64
2022/11/12 10:55:16;;;;;;;4.68;3.10;;;14.30;99.90;;;;;;4219909;28;20032;-66
2022/11/12 10:57:25;;;;;;;5.93;3.40;;;14.30;99.90;;;;;;4218129;28;20071;-65
2022/11/12 10:59:26;;;;;;;5.13;2.97;;;14.30;99.90;;;;;;4216511;28;20024;-65
2022/11/12 11:01:26;;;;;;;5.72;2.83;;;14.20;99.90;;;;;;4219590;28;20101;-65
2022/11/12 11:03:35;;;;;;;7.32;3.30;;;14.20;99.90;;;;;;4218366;28;20049;-65
2022/11/12 11:05:59;;;;;;;5.25;2.78;;;14.20;99.90;;;;;;4213394;28;20028;-65
2022/11/12 11:08:00;;;;;;;7.35;2.85;;;14.20;99.90;;;;;;4203752;28;20028;-65
2022/11/12 11:10:02;;;;;;;4.88;3.03;;;14.20;99.90;;;;;;4218350;28;20036;-64
2022/11/12 11:12:02;;;;;;;4.18;2.65;;;14.20;99.90;;;;;;4219124;28;20036;-65
2022/11/12 11:14:21;;;;;;;5.10;2.67;;;14.20;99.90;;;;;;4216989;28;20036;-65
2022/11/12 11:16:28;;;;;;;4.35;2.63;;;14.20;99.90;;;;;;4216485;28;20063;-65